Alexandria, Nebraska
Current Conditions -  °F | °C
As of 10:35 AM on Thursday 30 Oct 2014 (Local Time) from KHJH Reporting Station
Clear Clear  
Wind Chill: 57°   Ceiling: Unl
Heat Index: 57°   Visibility: 10mi
Dew Point: 36°   Wind: 14mph
Humidity: 45%   Direction: 330°NNW
Pressure: 30.14"   Gusts: 21mph
Location:  40.25°N, 97.39°W
Report Text: KHJH 301535Z AUTO 33012G18KT 10SM CLR 14/02 A3014 RMK AO2 T01410022
Loading
Personal Weather Stations






























Interactive Weather Map
Tropical Storm Tracking
New forecast layout! Learn more

10-Day Weather Forecast

Advertisements
Track Severe Weather on mobile